sensor_id;sensor_type;location;lat;lon;timestamp;temperature;humidity
79467;SHT30;68933;49.726;9.226;2023-06-19T00:01:32;23.4;48
79467;SHT30;68933;49.726;9.226;2023-06-19T00:03:45;23.4;48
79467;SHT30;68933;49.726;9.226;2023-06-19T00:05:58;23.4;48
79467;SHT30;68933;49.726;9.226;2023-06-19T00:08:11;23.4;48
79467;SHT30;68933;49.726;9.226;2023-06-19T00:10:24;23.3;48
79467;SHT30;68933;49.726;9.226;2023-06-19T00:12:37;23.3;48
79467;SHT30;68933;49.726;9.226;2023-06-19T00:14:50;23.2;48
79467;SHT30;68933;49.726;9.226;2023-06-19T00:17:03;23.2;48
79467;SHT30;68933;49.726;9.226;2023-06-19T00:19:16;23.2;48
79467;SHT30;68933;49.726;9.226;2023-06-19T00:21:29;23.2;48
79467;SHT30;68933;49.726;9.226;2023-06-19T00:23:42;23.2;48
79467;SHT30;68933;49.726;9.226;2023-06-19T00:25:55;23.1;48
79467;SHT30;68933;49.726;9.226;2023-06-19T00:28:08;23.1;48
79467;SHT30;68933;49.726;9.226;2023-06-19T00:30:21;23.1;48
79467;SHT30;68933;49.726;9.226;2023-06-19T00:32:34;23.1;48
79467;SHT30;68933;49.726;9.226;2023-06-19T00:34:47;23;50
79467;SHT30;68933;49.726;9.226;2023-06-19T00:37:00;23;50
79467;SHT30;68933;49.726;9.226;2023-06-19T00:39:13;23;50
79467;SHT30;68933;49.726;9.226;2023-06-19T00:41:26;23;48
79467;SHT30;68933;49.726;9.226;2023-06-19T00:43:39;23;48
79467;SHT30;68933;49.726;9.226;2023-06-19T00:45:52;23;48
79467;SHT30;68933;49.726;9.226;2023-06-19T00:48:05;23;48
79467;SHT30;68933;49.726;9.226;2023-06-19T00:50:18;22.9;50
79467;SHT30;68933;49.726;9.226;2023-06-19T00:52:31;22.9;50
79467;SHT30;68933;49.726;9.226;2023-06-19T00:54:44;22.9;50
79467;SHT30;68933;49.726;9.226;2023-06-19T00:56:57;22.9;50
79467;SHT30;68933;49.726;9.226;2023-06-19T00:59:11;22.8;50
79467;SHT30;68933;49.726;9.226;2023-06-19T01:01:23;22.8;50
79467;SHT30;68933;49.726;9.226;2023-06-19T01:03:36;22.7;50
79467;SHT30;68933;49.726;9.226;2023-06-19T01:05:49;22.7;50
79467;SHT30;68933;49.726;9.226;2023-06-19T01:08:03;22.7;50
79467;SHT30;68933;49.726;9.226;2023-06-19T01:10:16;22.5;50
79467;SHT30;68933;49.726;9.226;2023-06-19T01:12:33;22.5;50
79467;SHT30;68933;49.726;9.226;2023-06-19T01:14:43;22.5;50
79467;SHT30;68933;49.726;9.226;2023-06-19T01:16:54;22.4;50
79467;SHT30;68933;49.726;9.226;2023-06-19T01:19:09;22.4;50
79467;SHT30;68933;49.726;9.226;2023-06-19T01:21:21;22.4;50
79467;SHT30;68933;49.726;9.226;2023-06-19T01:23:33;22.4;50
79467;SHT30;68933;49.726;9.226;2023-06-19T01:25:46;22.3;50
79467;SHT30;68933;49.726;9.226;2023-06-19T01:27:59;22.3;50
79467;SHT30;68933;49.726;9.226;2023-06-19T01:30:12;22.3;50
79467;SHT30;68933;49.726;9.226;2023-06-19T01:32:28;22.3;50
79467;SHT30;68933;49.726;9.226;2023-06-19T01:34:38;22.3;50
79467;SHT30;68933;49.726;9.226;2023-06-19T01:36:51;22.1;51
79467;SHT30;68933;49.726;9.226;2023-06-19T01:39:04;22.1;51
79467;SHT30;68933;49.726;9.226;2023-06-19T01:41:17;22.1;51
79467;SHT30;68933;49.726;9.226;2023-06-19T01:43:30;22;51
79467;SHT30;68933;49.726;9.226;2023-06-19T01:45:43;22;51
79467;SHT30;68933;49.726;9.226;2023-06-19T01:47:56;21.8;51
79467;SHT30;68933;49.726;9.226;2023-06-19T01:50:09;21.8;51
79467;SHT30;68933;49.726;9.226;2023-06-19T01:52:22;21.8;51
79467;SHT30;68933;49.726;9.226;2023-06-19T01:54:35;21.8;51
79467;SHT30;68933;49.726;9.226;2023-06-19T01:56:48;21.8;51
79467;SHT30;68933;49.726;9.226;2023-06-19T01:59:01;21.7;51
79467;SHT30;68933;49.726;9.226;2023-06-19T02:01:14;21.7;51
79467;SHT30;68933;49.726;9.226;2023-06-19T02:03:27;21.6;51
79467;SHT30;68933;49.726;9.226;2023-06-19T02:05:40;21.6;51
79467;SHT30;68933;49.726;9.226;2023-06-19T02:07:53;21.6;51
79467;SHT30;68933;49.726;9.226;2023-06-19T02:10:06;21.6;51
79467;SHT30;68933;49.726;9.226;2023-06-19T02:12:19;21.6;51
79467;SHT30;68933;49.726;9.226;2023-06-19T02:14:32;21.6;51
79467;SHT30;68933;49.726;9.226;2023-06-19T02:16:45;21.6;51
79467;SHT30;68933;49.726;9.226;2023-06-19T02:18:58;21.6;51
79467;SHT30;68933;49.726;9.226;2023-06-19T02:21:11;21.6;51
79467;SHT30;68933;49.726;9.226;2023-06-19T02:23:24;21.6;51
79467;SHT30;68933;49.726;9.226;2023-06-19T02:25:37;21.6;51
79467;SHT30;68933;49.726;9.226;2023-06-19T02:27:50;21.6;51
79467;SHT30;68933;49.726;9.226;2023-06-19T02:30:03;21.5;51
79467;SHT30;68933;49.726;9.226;2023-06-19T02:32:16;21.5;51
79467;SHT30;68933;49.726;9.226;2023-06-19T02:34:29;21.3;52
79467;SHT30;68933;49.726;9.226;2023-06-19T02:36:42;21.3;52
79467;SHT30;68933;49.726;9.226;2023-06-19T02:38:55;21.2;52
79467;SHT30;68933;49.726;9.226;2023-06-19T02:41:08;21.2;52
79467;SHT30;68933;49.726;9.226;2023-06-19T02:43:21;21.2;52
79467;SHT30;68933;49.726;9.226;2023-06-19T02:45:34;21.1;52
79467;SHT30;68933;49.726;9.226;2023-06-19T02:47:47;21.1;52
79467;SHT30;68933;49.726;9.226;2023-06-19T02:50:00;21.1;53
79467;SHT30;68933;49.726;9.226;2023-06-19T02:52:13;21.1;53
79467;SHT30;68933;49.726;9.226;2023-06-19T02:54:26;21.1;53
79467;SHT30;68933;49.726;9.226;2023-06-19T02:56:39;21.1;53
79467;SHT30;68933;49.726;9.226;2023-06-19T02:58:52;21.1;53
79467;SHT30;68933;49.726;9.226;2023-06-19T03:01:05;21.1;53
79467;SHT30;68933;49.726;9.226;2023-06-19T03:03:18;21.1;53
79467;SHT30;68933;49.726;9.226;2023-06-19T03:05:31;21.1;53
79467;SHT30;68933;49.726;9.226;2023-06-19T03:07:44;21.1;53
79467;SHT30;68933;49.726;9.226;2023-06-19T03:09:57;21.1;53
79467;SHT30;68933;49.726;9.226;2023-06-19T03:12:10;21.1;53
79467;SHT30;68933;49.726;9.226;2023-06-19T03:14:23;21.1;53
79467;SHT30;68933;49.726;9.226;2023-06-19T03:16:36;21.1;53
79467;SHT30;68933;49.726;9.226;2023-06-19T03:18:49;21.1;53
79467;SHT30;68933;49.726;9.226;2023-06-19T03:21:02;21.1;53
79467;SHT30;68933;49.726;9.226;2023-06-19T03:23:15;21.1;53
79467;SHT30;68933;49.726;9.226;2023-06-19T03:25:28;21;53
79467;SHT30;68933;49.726;9.226;2023-06-19T03:27:41;21;53
79467;SHT30;68933;49.726;9.226;2023-06-19T03:29:54;21.1;53
79467;SHT30;68933;49.726;9.226;2023-06-19T03:32:07;21.1;53
79467;SHT30;68933;49.726;9.226;2023-06-19T03:34:20;21.1;53
79467;SHT30;68933;49.726;9.226;2023-06-19T03:36:33;21.1;53
79467;SHT30;68933;49.726;9.226;2023-06-19T03:38:46;21.1;53
79467;SHT30;68933;49.726;9.226;2023-06-19T03:40:59;21.1;53
79467;SHT30;68933;49.726;9.226;2023-06-19T03:43:12;21.2;52
79467;SHT30;68933;49.726;9.226;2023-06-19T03:45:25;21.2;52
79467;SHT30;68933;49.726;9.226;2023-06-19T03:47:38;21.2;52
79467;SHT30;68933;49.726;9.226;2023-06-19T03:49:51;21.2;52
79467;SHT30;68933;49.726;9.226;2023-06-19T03:52:04;21.2;52
79467;SHT30;68933;49.726;9.226;2023-06-19T03:54:17;21.3;52
79467;SHT30;68933;49.726;9.226;2023-06-19T03:56:30;21.3;52
79467;SHT30;68933;49.726;9.226;2023-06-19T03:58:43;21.3;52
79467;SHT30;68933;49.726;9.226;2023-06-19T04:00:56;21.3;52
79467;SHT30;68933;49.726;9.226;2023-06-19T04:03:09;21.3;52
79467;SHT30;68933;49.726;9.226;2023-06-19T04:05:22;21.3;52
79467;SHT30;68933;49.726;9.226;2023-06-19T04:07:35;21.3;52
79467;SHT30;68933;49.726;9.226;2023-06-19T04:09:48;21.4;52
79467;SHT30;68933;49.726;9.226;2023-06-19T04:12:01;21.4;52
79467;SHT30;68933;49.726;9.226;2023-06-19T04:14:14;21.5;52
79467;SHT30;68933;49.726;9.226;2023-06-19T04:16:27;21.5;52
79467;SHT30;68933;49.726;9.226;2023-06-19T04:18:40;21.5;52
79467;SHT30;68933;49.726;9.226;2023-06-19T04:20:53;21.6;51
79467;SHT30;68933;49.726;9.226;2023-06-19T04:23:06;21.6;51
79467;SHT30;68933;49.726;9.226;2023-06-19T04:25:19;21.7;51
79467;SHT30;68933;49.726;9.226;2023-06-19T04:27:32;21.7;51
79467;SHT30;68933;49.726;9.226;2023-06-19T04:29:45;21.7;51
79467;SHT30;68933;49.726;9.226;2023-06-19T04:31:58;21.7;51
79467;SHT30;68933;49.726;9.226;2023-06-19T04:34:11;21.7;51
79467;SHT30;68933;49.726;9.226;2023-06-19T04:36:24;21.8;52
79467;SHT30;68933;49.726;9.226;2023-06-19T04:38:37;21.8;52
79467;SHT30;68933;49.726;9.226;2023-06-19T04:40:50;21.8;52
79467;SHT30;68933;49.726;9.226;2023-06-19T04:43:03;21.8;54
79467;SHT30;68933;49.726;9.226;2023-06-19T04:45:16;21.8;54
79467;SHT30;68933;49.726;9.226;2023-06-19T04:47:29;21.8;54
79467;SHT30;68933;49.726;9.226;2023-06-19T04:49:42;21.8;54
79467;SHT30;68933;49.726;9.226;2023-06-19T04:51:55;21.9;54
79467;SHT30;68933;49.726;9.226;2023-06-19T04:54:08;21.9;54
79467;SHT30;68933;49.726;9.226;2023-06-19T04:56:21;21.9;54
79467;SHT30;68933;49.726;9.226;2023-06-19T04:58:34;21.9;52
79467;SHT30;68933;49.726;9.226;2023-06-19T05:00:47;21.9;52
79467;SHT30;68933;49.726;9.226;2023-06-19T05:03:00;22;54
79467;SHT30;68933;49.726;9.226;2023-06-19T05:05:13;22;54
79467;SHT30;68933;49.726;9.226;2023-06-19T05:07:26;22.1;52
79467;SHT30;68933;49.726;9.226;2023-06-19T05:09:39;22.1;52
79467;SHT30;68933;49.726;9.226;2023-06-19T05:11:52;22.1;52
79467;SHT30;68933;49.726;9.226;2023-06-19T05:14:05;22.2;52
79467;SHT30;68933;49.726;9.226;2023-06-19T05:16:18;22.2;52
79467;SHT30;68933;49.726;9.226;2023-06-19T05:18:31;22.3;52
79467;SHT30;68933;49.726;9.226;2023-06-19T05:20:44;22.3;52
79467;SHT30;68933;49.726;9.226;2023-06-19T05:22:57;22.5;52
79467;SHT30;68933;49.726;9.226;2023-06-19T05:25:10;22.5;52
79467;SHT30;68933;49.726;9.226;2023-06-19T05:27:23;22.5;52
79467;SHT30;68933;49.726;9.226;2023-06-19T05:29:36;22.6;51
79467;SHT30;68933;49.726;9.226;2023-06-19T05:31:49;22.6;51
79467;SHT30;68933;49.726;9.226;2023-06-19T05:34:02;22.7;52
79467;SHT30;68933;49.726;9.226;2023-06-19T05:36:15;22.7;52
79467;SHT30;68933;49.726;9.226;2023-06-19T05:38:28;22.8;52
79467;SHT30;68933;49.726;9.226;2023-06-19T05:40:41;22.8;52
79467;SHT30;68933;49.726;9.226;2023-06-19T05:42:54;23.1;52
79467;SHT30;68933;49.726;9.226;2023-06-19T05:45:07;23.1;52
79467;SHT30;68933;49.726;9.226;2023-06-19T05:47:20;23.1;52
79467;SHT30;68933;49.726;9.226;2023-06-19T05:49:33;23.3;51
79467;SHT30;68933;49.726;9.226;2023-06-19T05:51:46;23.3;51
79467;SHT30;68933;49.726;9.226;2023-06-19T05:53:59;23.5;51
79467;SHT30;68933;49.726;9.226;2023-06-19T05:56:12;23.5;51
79467;SHT30;68933;49.726;9.226;2023-06-19T05:58:25;23.7;51
79467;SHT30;68933;49.726;9.226;2023-06-19T06:00:38;23.7;51
79467;SHT30;68933;49.726;9.226;2023-06-19T06:02:51;23.7;51
79467;SHT30;68933;49.726;9.226;2023-06-19T06:05:04;23.8;51
79467;SHT30;68933;49.726;9.226;2023-06-19T06:07:17;23.8;51
79467;SHT30;68933;49.726;9.226;2023-06-19T06:09:30;24;51
79467;SHT30;68933;49.726;9.226;2023-06-19T06:11:43;24;51
79467;SHT30;68933;49.726;9.226;2023-06-19T06:13:56;24.1;51
79467;SHT30;68933;49.726;9.226;2023-06-19T06:16:09;24.1;51
79467;SHT30;68933;49.726;9.226;2023-06-19T06:18:22;24.3;51
79467;SHT30;68933;49.726;9.226;2023-06-19T06:20:35;24.3;51
79467;SHT30;68933;49.726;9.226;2023-06-19T06:22:48;24.3;51
79467;SHT30;68933;49.726;9.226;2023-06-19T06:25:01;24.5;51
79467;SHT30;68933;49.726;9.226;2023-06-19T06:27:14;24.5;51
79467;SHT30;68933;49.726;9.226;2023-06-19T06:29:27;24.7;51
79467;SHT30;68933;49.726;9.226;2023-06-19T06:31:40;24.7;51
79467;SHT30;68933;49.726;9.226;2023-06-19T06:33:53;25;51
79467;SHT30;68933;49.726;9.226;2023-06-19T06:36:06;25;51
79467;SHT30;68933;49.726;9.226;2023-06-19T06:38:19;25.2;50
79467;SHT30;68933;49.726;9.226;2023-06-19T06:40:32;25.2;50
79467;SHT30;68933;49.726;9.226;2023-06-19T06:42:45;25.2;50
79467;SHT30;68933;49.726;9.226;2023-06-19T06:44:58;25.4;50
79467;SHT30;68933;49.726;9.226;2023-06-19T06:47:11;25.4;50
79467;SHT30;68933;49.726;9.226;2023-06-19T06:49:24;25.6;49
79467;SHT30;68933;49.726;9.226;2023-06-19T06:51:37;25.6;49
79467;SHT30;68933;49.726;9.226;2023-06-19T06:53:50;25.7;49
79467;SHT30;68933;49.726;9.226;2023-06-19T06:56:03;25.7;49
79467;SHT30;68933;49.726;9.226;2023-06-19T06:58:16;25.7;49
79467;SHT30;68933;49.726;9.226;2023-06-19T07:00:29;25.7;49
79467;SHT30;68933;49.726;9.226;2023-06-19T07:02:42;25.7;49
79467;SHT30;68933;49.726;9.226;2023-06-19T07:04:55;25.7;49
79467;SHT30;68933;49.726;9.226;2023-06-19T07:07:08;25.8;49
79467;SHT30;68933;49.726;9.226;2023-06-19T07:09:21;25.8;49
79467;SHT30;68933;49.726;9.226;2023-06-19T07:11:34;25.8;49
79467;SHT30;68933;49.726;9.226;2023-06-19T07:13:47;26;49
79467;SHT30;68933;49.726;9.226;2023-06-19T07:16:00;26;49
79467;SHT30;68933;49.726;9.226;2023-06-19T07:18:13;26.2;49
79467;SHT30;68933;49.726;9.226;2023-06-19T07:20:26;26.2;49
79467;SHT30;68933;49.726;9.226;2023-06-19T07:22:39;26.2;49
79467;SHT30;68933;49.726;9.226;2023-06-19T07:24:52;26.3;49
79467;SHT30;68933;49.726;9.226;2023-06-19T07:27:05;26.3;49
79467;SHT30;68933;49.726;9.226;2023-06-19T07:29:18;26.3;49
79467;SHT30;68933;49.726;9.226;2023-06-19T07:31:31;26.3;49
79467;SHT30;68933;49.726;9.226;2023-06-19T07:33:44;26.3;49
79467;SHT30;68933;49.726;9.226;2023-06-19T07:35:57;26.5;49
79467;SHT30;68933;49.726;9.226;2023-06-19T07:38:10;26.5;49
79467;SHT30;68933;49.726;9.226;2023-06-19T07:40:23;26.7;48
79467;SHT30;68933;49.726;9.226;2023-06-19T07:42:36;26.7;48
79467;SHT30;68933;49.726;9.226;2023-06-19T07:44:49;26.9;48
79467;SHT30;68933;49.726;9.226;2023-06-19T07:47:02;26.9;48
79467;SHT30;68933;49.726;9.226;2023-06-19T07:49:15;26.9;48
79467;SHT30;68933;49.726;9.226;2023-06-19T07:51:28;27.3;48
79467;SHT30;68933;49.726;9.226;2023-06-19T07:53:41;27.3;48
79467;SHT30;68933;49.726;9.226;2023-06-19T07:55:54;27.7;47
79467;SHT30;68933;49.726;9.226;2023-06-19T07:58:07;27.7;47
79467;SHT30;68933;49.726;9.226;2023-06-19T08:00:20;27.7;47
79467;SHT30;68933;49.726;9.226;2023-06-19T08:02:33;27.8;47
79467;SHT30;68933;49.726;9.226;2023-06-19T08:04:46;27.8;47
79467;SHT30;68933;49.726;9.226;2023-06-19T08:06:59;27.8;47
79467;SHT30;68933;49.726;9.226;2023-06-19T08:09:12;27.8;47
79467;SHT30;68933;49.726;9.226;2023-06-19T08:11:25;27.8;47
79467;SHT30;68933;49.726;9.226;2023-06-19T08:13:38;28.3;47
79467;SHT30;68933;49.726;9.226;2023-06-19T08:15:51;28.3;47
79467;SHT30;68933;49.726;9.226;2023-06-19T08:18:04;28.7;45
79467;SHT30;68933;49.726;9.226;2023-06-19T08:20:17;28.7;45
79467;SHT30;68933;49.726;9.226;2023-06-19T08:22:30;29.1;45
79467;SHT30;68933;49.726;9.226;2023-06-19T08:24:43;29.1;45
79467;SHT30;68933;49.726;9.226;2023-06-19T08:26:56;29.1;45
79467;SHT30;68933;49.726;9.226;2023-06-19T08:29:09;29.5;44
79467;SHT30;68933;49.726;9.226;2023-06-19T08:31:22;29.5;44
79467;SHT30;68933;49.726;9.226;2023-06-19T08:33:35;29.5;44
79467;SHT30;68933;49.726;9.226;2023-06-19T08:35:48;29.5;44
79467;SHT30;68933;49.726;9.226;2023-06-19T08:38:01;29.4;44
79467;SHT30;68933;49.726;9.226;2023-06-19T08:40:14;29.4;44
79467;SHT30;68933;49.726;9.226;2023-06-19T08:42:27;29.4;44
79467;SHT30;68933;49.726;9.226;2023-06-19T08:44:40;29.3;44
79467;SHT30;68933;49.726;9.226;2023-06-19T08:46:53;29.3;44
79467;SHT30;68933;49.726;9.226;2023-06-19T08:49:07;29.1;44
79467;SHT30;68933;49.726;9.226;2023-06-19T08:51:19;29.1;44
79467;SHT30;68933;49.726;9.226;2023-06-19T08:53:33;29.2;44
79467;SHT30;68933;49.726;9.226;2023-06-19T08:55:45;29.2;44
79467;SHT30;68933;49.726;9.226;2023-06-19T08:57:58;29.2;44
79467;SHT30;68933;49.726;9.226;2023-06-19T09:00:11;29.3;44
79467;SHT30;68933;49.726;9.226;2023-06-19T09:02:24;29.3;44
79467;SHT30;68933;49.726;9.226;2023-06-19T09:04:37;29.3;44
79467;SHT30;68933;49.726;9.226;2023-06-19T09:06:50;29.3;44
79467;SHT30;68933;49.726;9.226;2023-06-19T09:09:04;29.7;44
79467;SHT30;68933;49.726;9.226;2023-06-19T09:11:17;29.7;44
79467;SHT30;68933;49.726;9.226;2023-06-19T09:13:29;29.7;44
79467;SHT30;68933;49.726;9.226;2023-06-19T09:15:42;30.3;43
79467;SHT30;68933;49.726;9.226;2023-06-19T09:18:03;30.3;43
79467;SHT30;68933;49.726;9.226;2023-06-19T09:20:08;30.5;43
79467;SHT30;68933;49.726;9.226;2023-06-19T09:22:21;30.5;43
79467;SHT30;68933;49.726;9.226;2023-06-19T09:24:34;30.6;43
79467;SHT30;68933;49.726;9.226;2023-06-19T09:26:47;30.6;43
79467;SHT30;68933;49.726;9.226;2023-06-19T09:29:09;30.6;43
79467;SHT30;68933;49.726;9.226;2023-06-19T09:31:13;30.9;41
79467;SHT30;68933;49.726;9.226;2023-06-19T09:33:26;30.9;41
79467;SHT30;68933;49.726;9.226;2023-06-19T09:35:39;30.8;41
79467;SHT30;68933;49.726;9.226;2023-06-19T09:37:52;30.8;41
79467;SHT30;68933;49.726;9.226;2023-06-19T09:40:05;30.7;41
79467;SHT30;68933;49.726;9.226;2023-06-19T09:42:18;30.7;41
79467;SHT30;68933;49.726;9.226;2023-06-19T09:44:31;30.7;41
79467;SHT30;68933;49.726;9.226;2023-06-19T09:46:44;30.7;41
79467;SHT30;68933;49.726;9.226;2023-06-19T09:48:58;30.6;41
79467;SHT30;68933;49.726;9.226;2023-06-19T09:51:11;30.6;41
79467;SHT30;68933;49.726;9.226;2023-06-19T09:53:23;30.6;41
79467;SHT30;68933;49.726;9.226;2023-06-19T09:55:36;30.4;43
79467;SHT30;68933;49.726;9.226;2023-06-19T09:57:49;30.4;43
79467;SHT30;68933;49.726;9.226;2023-06-19T10:00:03;30.5;43
79467;SHT30;68933;49.726;9.226;2023-06-19T10:02:15;30.5;43
79467;SHT30;68933;49.726;9.226;2023-06-19T10:04:28;30.9;43
79467;SHT30;68933;49.726;9.226;2023-06-19T10:06:42;30.9;43
79467;SHT30;68933;49.726;9.226;2023-06-19T10:08:54;31.3;41
79467;SHT30;68933;49.726;9.226;2023-06-19T10:11:07;31.3;41
79467;SHT30;68933;49.726;9.226;2023-06-19T10:13:20;31.5;40
79467;SHT30;68933;49.726;9.226;2023-06-19T10:15:33;31.5;40
79467;SHT30;68933;49.726;9.226;2023-06-19T10:17:47;31.5;40
79467;SHT30;68933;49.726;9.226;2023-06-19T10:19:59;31.7;40
79467;SHT30;68933;49.726;9.226;2023-06-19T10:22:18;31.7;40
79467;SHT30;68933;49.726;9.226;2023-06-19T10:24:25;31.7;40
79467;SHT30;68933;49.726;9.226;2023-06-19T10:26:38;31.7;40
79467;SHT30;68933;49.726;9.226;2023-06-19T10:28:51;31.6;40
79467;SHT30;68933;49.726;9.226;2023-06-19T10:31:04;31.6;40
79467;SHT30;68933;49.726;9.226;2023-06-19T10:33:17;31.6;40
79467;SHT30;68933;49.726;9.226;2023-06-19T10:35:36;31.4;41
79467;SHT30;68933;49.726;9.226;2023-06-19T10:37:43;31.4;41
79467;SHT30;68933;49.726;9.226;2023-06-19T10:39:56;31.5;40
79467;SHT30;68933;49.726;9.226;2023-06-19T10:42:09;31.5;40
79467;SHT30;68933;49.726;9.226;2023-06-19T10:44:22;31.5;40
79467;SHT30;68933;49.726;9.226;2023-06-19T10:46:35;31.5;40
79467;SHT30;68933;49.726;9.226;2023-06-19T10:48:48;31.5;40
79467;SHT30;68933;49.726;9.226;2023-06-19T10:51:01;31.7;40
79467;SHT30;68933;49.726;9.226;2023-06-19T10:53:22;31.7;40
79467;SHT30;68933;49.726;9.226;2023-06-19T10:55:27;31.9;40
79467;SHT30;68933;49.726;9.226;2023-06-19T10:57:40;31.9;40
79467;SHT30;68933;49.726;9.226;2023-06-19T10:59:53;31.9;40
79467;SHT30;68933;49.726;9.226;2023-06-19T11:02:06;32.3;40
79467;SHT30;68933;49.726;9.226;2023-06-19T11:04:19;32.3;40
79467;SHT30;68933;49.726;9.226;2023-06-19T11:06:32;32.5;39
79467;SHT30;68933;49.726;9.226;2023-06-19T11:08:50;32.5;39
79467;SHT30;68933;49.726;9.226;2023-06-19T11:10:58;32.7;39
79467;SHT30;68933;49.726;9.226;2023-06-19T11:13:13;32.7;39
79467;SHT30;68933;49.726;9.226;2023-06-19T11:15:31;32.7;39
79467;SHT30;68933;49.726;9.226;2023-06-19T11:17:37;33.3;37
79467;SHT30;68933;49.726;9.226;2023-06-19T11:19:50;33.3;37
79467;SHT30;68933;49.726;9.226;2023-06-19T11:22:03;33.5;37
79467;SHT30;68933;49.726;9.226;2023-06-19T11:24:16;33.5;37
79467;SHT30;68933;49.726;9.226;2023-06-19T11:26:29;33.5;37
79467;SHT30;68933;49.726;9.226;2023-06-19T11:28:47;33.6;37
79467;SHT30;68933;49.726;9.226;2023-06-19T11:30:57;33.6;37
79467;SHT30;68933;49.726;9.226;2023-06-19T11:33:14;33.7;36
79467;SHT30;68933;49.726;9.226;2023-06-19T11:35:21;33.7;36
79467;SHT30;68933;49.726;9.226;2023-06-19T11:37:34;34;36
79467;SHT30;68933;49.726;9.226;2023-06-19T11:39:47;34;36
79467;SHT30;68933;49.726;9.226;2023-06-19T11:42:00;34;36
79467;SHT30;68933;49.726;9.226;2023-06-19T11:44:13;34.2;36
79467;SHT30;68933;49.726;9.226;2023-06-19T11:46:28;34.2;36
79467;SHT30;68933;49.726;9.226;2023-06-19T11:48:39;34.3;36
79467;SHT30;68933;49.726;9.226;2023-06-19T11:50:52;34.3;36
79467;SHT30;68933;49.726;9.226;2023-06-19T11:53:05;34.5;36
79467;SHT30;68933;49.726;9.226;2023-06-19T11:55:18;34.5;36
79467;SHT30;68933;49.726;9.226;2023-06-19T11:57:31;34.5;36
79467;SHT30;68933;49.726;9.226;2023-06-19T11:59:44;34.9;35
79467;SHT30;68933;49.726;9.226;2023-06-19T12:01:57;34.9;35
79467;SHT30;68933;49.726;9.226;2023-06-19T12:04:10;35;35
79467;SHT30;68933;49.726;9.226;2023-06-19T12:06:23;35;35
79467;SHT30;68933;49.726;9.226;2023-06-19T12:08:36;35.3;34
79467;SHT30;68933;49.726;9.226;2023-06-19T12:10:49;35.3;34
79467;SHT30;68933;49.726;9.226;2023-06-19T12:13:02;35.3;34
79467;SHT30;68933;49.726;9.226;2023-06-19T12:15:15;35.3;34
79467;SHT30;68933;49.726;9.226;2023-06-19T12:17:28;35.3;34
79467;SHT30;68933;49.726;9.226;2023-06-19T12:19:41;35.3;34
79467;SHT30;68933;49.726;9.226;2023-06-19T12:21:54;35.3;34
79467;SHT30;68933;49.726;9.226;2023-06-19T12:24:07;35.5;35
79467;SHT30;68933;49.726;9.226;2023-06-19T12:26:20;35.5;35
79467;SHT30;68933;49.726;9.226;2023-06-19T12:28:33;35.5;33
79467;SHT30;68933;49.726;9.226;2023-06-19T12:30:46;35.5;33
79467;SHT30;68933;49.726;9.226;2023-06-19T12:32:59;35.5;33
79467;SHT30;68933;49.726;9.226;2023-06-19T12:35:12;35.5;33
79467;SHT30;68933;49.726;9.226;2023-06-19T12:37:25;35.5;33
79467;SHT30;68933;49.726;9.226;2023-06-19T12:39:38;35.6;33
79467;SHT30;68933;49.726;9.226;2023-06-19T12:41:51;35.6;33
79467;SHT30;68933;49.726;9.226;2023-06-19T12:44:04;35.8;33
79467;SHT30;68933;49.726;9.226;2023-06-19T12:46:17;35.8;33
79467;SHT30;68933;49.726;9.226;2023-06-19T12:48:30;35.8;32
79467;SHT30;68933;49.726;9.226;2023-06-19T12:50:43;35.8;32
79467;SHT30;68933;49.726;9.226;2023-06-19T12:52:56;35.9;33
79467;SHT30;68933;49.726;9.226;2023-06-19T12:55:09;35.9;33
79467;SHT30;68933;49.726;9.226;2023-06-19T12:57:22;35.9;33
79467;SHT30;68933;49.726;9.226;2023-06-19T12:59:35;35.9;32
79467;SHT30;68933;49.726;9.226;2023-06-19T13:01:48;35.9;32
79467;SHT30;68933;49.726;9.226;2023-06-19T13:04:01;35.7;32
79467;SHT30;68933;49.726;9.226;2023-06-19T13:06:14;35.7;32
79467;SHT30;68933;49.726;9.226;2023-06-19T13:08:27;35.7;32
79467;SHT30;68933;49.726;9.226;2023-06-19T13:10:40;35.7;32
79467;SHT30;68933;49.726;9.226;2023-06-19T13:12:53;35.5;31
79467;SHT30;68933;49.726;9.226;2023-06-19T13:15:06;35.5;31
79467;SHT30;68933;49.726;9.226;2023-06-19T13:17:19;35.5;31
79467;SHT30;68933;49.726;9.226;2023-06-19T13:19:32;35.4;32
79467;SHT30;68933;49.726;9.226;2023-06-19T13:21:45;35.4;32
79467;SHT30;68933;49.726;9.226;2023-06-19T13:23:58;35.4;32
79467;SHT30;68933;49.726;9.226;2023-06-19T13:26:11;35.4;32
79467;SHT30;68933;49.726;9.226;2023-06-19T13:28:24;35.4;31
79467;SHT30;68933;49.726;9.226;2023-06-19T13:30:37;35.4;31
79467;SHT30;68933;49.726;9.226;2023-06-19T13:32:50;35.4;32
79467;SHT30;68933;49.726;9.226;2023-06-19T13:35:03;35.4;32
79467;SHT30;68933;49.726;9.226;2023-06-19T13:37:16;35.3;31
79467;SHT30;68933;49.726;9.226;2023-06-19T13:39:29;35.3;31
79467;SHT30;68933;49.726;9.226;2023-06-19T13:41:42;35.2;31
79467;SHT30;68933;49.726;9.226;2023-06-19T13:43:55;35.2;31
79467;SHT30;68933;49.726;9.226;2023-06-19T13:46:08;35.2;31
79467;SHT30;68933;49.726;9.226;2023-06-19T13:48:21;35.3;32
79467;SHT30;68933;49.726;9.226;2023-06-19T13:50:34;35.3;32
79467;SHT30;68933;49.726;9.226;2023-06-19T13:52:47;35.4;32
79467;SHT30;68933;49.726;9.226;2023-06-19T13:55:00;35.4;32
79467;SHT30;68933;49.726;9.226;2023-06-19T13:57:13;35.4;32
79467;SHT30;68933;49.726;9.226;2023-06-19T14:02:27;35.7;31
79467;SHT30;68933;49.726;9.226;2023-06-19T14:03:56;35.7;31
79467;SHT30;68933;49.726;9.226;2023-06-19T14:06:10;35.5;31
79467;SHT30;68933;49.726;9.226;2023-06-19T14:08:22;35.5;31
79467;SHT30;68933;49.726;9.226;2023-06-19T14:10:35;35;32
79467;SHT30;68933;49.726;9.226;2023-06-19T14:12:48;35;32
79467;SHT30;68933;49.726;9.226;2023-06-19T14:15:09;35;34
79467;SHT30;68933;49.726;9.226;2023-06-19T14:17:14;35;34
79467;SHT30;68933;49.726;9.226;2023-06-19T14:19:27;35;34
79467;SHT30;68933;49.726;9.226;2023-06-19T14:21:40;35.2;32
79467;SHT30;68933;49.726;9.226;2023-06-19T14:23:53;35.2;32
79467;SHT30;68933;49.726;9.226;2023-06-19T14:26:06;35.8;32
79467;SHT30;68933;49.726;9.226;2023-06-19T14:28:19;35.8;32
79467;SHT30;68933;49.726;9.226;2023-06-19T14:30:32;36;31
79467;SHT30;68933;49.726;9.226;2023-06-19T14:32:45;36;31
79467;SHT30;68933;49.726;9.226;2023-06-19T14:34:58;36;31
79467;SHT30;68933;49.726;9.226;2023-06-19T14:37:11;36;31
79467;SHT30;68933;49.726;9.226;2023-06-19T14:39:24;36;31
79467;SHT30;68933;49.726;9.226;2023-06-19T14:41:37;36.3;31
79467;SHT30;68933;49.726;9.226;2023-06-19T14:43:50;36.3;31
79467;SHT30;68933;49.726;9.226;2023-06-19T14:46:03;36.3;30
79467;SHT30;68933;49.726;9.226;2023-06-19T14:48:16;36.3;30
79467;SHT30;68933;49.726;9.226;2023-06-19T14:50:29;36.3;30
79467;SHT30;68933;49.726;9.226;2023-06-19T14:52:42;36;31
79467;SHT30;68933;49.726;9.226;2023-06-19T14:54:55;36;31
79467;SHT30;68933;49.726;9.226;2023-06-19T14:57:08;36;31
79467;SHT30;68933;49.726;9.226;2023-06-19T14:59:21;36;31
79467;SHT30;68933;49.726;9.226;2023-06-19T15:01:34;36.7;31